sensor_id;sensor_type;location;lat;lon;timestamp;pressure;altitude;pressure_sealevel;temperature;humidity
13011;BME280;6786;57.632;11.962;2024-01-10T00:00:47;102927.44;;;18.11;32.35
13011;BME280;6786;57.632;11.962;2024-01-10T00:03:15;102926.56;;;18.10;32.49
13011;BME280;6786;57.632;11.962;2024-01-10T00:05:44;102929.31;;;18.09;32.33
13011;BME280;6786;57.632;11.962;2024-01-10T00:08:12;102931.06;;;18.10;32.29
13011;BME280;6786;57.632;11.962;2024-01-10T00:10:41;102924.84;;;18.09;32.48
13011;BME280;6786;57.632;11.962;2024-01-10T00:13:09;102915.94;;;18.09;32.30
13011;BME280;6786;57.632;11.962;2024-01-10T00:15:38;102913.41;;;18.06;32.29
13011;BME280;6786;57.632;11.962;2024-01-10T00:18:07;102916.91;;;18.08;32.33
13011;BME280;6786;57.632;11.962;2024-01-10T00:20:36;102915.94;;;18.09;32.30
13011;BME280;6786;57.632;11.962;2024-01-10T00:23:05;102923.97;;;18.09;32.40
13011;BME280;6786;57.632;11.962;2024-01-10T00:25:34;102917.66;;;18.10;32.33
13011;BME280;6786;57.632;11.962;2024-01-10T00:28:03;102915.94;;;18.09;32.30
13011;BME280;6786;57.632;11.962;2024-01-10T00:30:31;102907.91;;;18.09;32.49
13011;BME280;6786;57.632;11.962;2024-01-10T00:33:00;102911.47;;;18.09;32.30
13011;BME280;6786;57.632;11.962;2024-01-10T00:35:30;102906.97;;;18.10;32.25
13011;BME280;6786;57.632;11.962;2024-01-10T00:37:59;102815.13;;;17.56;32.33
13011;BME280;6786;57.632;11.962;2024-01-10T00:40:27;102901.63;;;18.10;32.46
13011;BME280;6786;57.632;11.962;2024-01-10T00:42:55;102898.94;;;18.10;32.39
13011;BME280;6786;57.632;11.962;2024-01-10T00:45:24;102886.81;;;18.03;32.30
13011;BME280;6786;57.632;11.962;2024-01-10T00:47:52;102906.97;;;18.10;32.41
13011;BME280;6786;57.632;11.962;2024-01-10T00:50:21;102892.00;;;18.06;32.28
13011;BME280;6786;57.632;11.962;2024-01-10T00:52:50;102896.25;;;18.10;32.35
13011;BME280;6786;57.632;11.962;2024-01-10T00:55:19;102891.84;;;18.09;32.42
13011;BME280;6786;57.632;11.962;2024-01-10T00:57:47;102893.59;;;18.10;32.40
13011;BME280;6786;57.632;11.962;2024-01-10T01:00:16;102872.94;;;17.95;32.34
13011;BME280;6786;57.632;11.962;2024-01-10T01:02:44;102898.00;;;18.11;32.27
13011;BME280;6786;57.632;11.962;2024-01-10T01:05:13;102890.00;;;18.11;32.45
13011;BME280;6786;57.632;11.962;2024-01-10T01:07:41;102893.59;;;18.10;32.39
13011;BME280;6786;57.632;11.962;2024-01-10T01:10:11;102889.09;;;18.10;32.43
13011;BME280;6786;57.632;11.962;2024-01-10T01:12:39;102887.47;;;18.08;32.36
13011;BME280;6786;57.632;11.962;2024-01-10T01:15:08;102886.50;;;18.09;32.24
13011;BME280;6786;57.632;11.962;2024-01-10T01:17:37;102888.22;;;18.10;32.31
13011;BME280;6786;57.632;11.962;2024-01-10T01:20:06;102891.78;;;18.10;32.40
13011;BME280;6786;57.632;11.962;2024-01-10T01:22:36;102882.03;;;18.09;32.37
13011;BME280;6786;57.632;11.962;2024-01-10T01:25:05;102881.16;;;18.09;32.32
13011;BME280;6786;57.632;11.962;2024-01-10T01:27:34;102881.16;;;18.09;32.39
13011;BME280;6786;57.632;11.962;2024-01-10T01:30:04;102886.50;;;18.09;32.32
13011;BME280;6786;57.632;11.962;2024-01-10T01:32:32;102891.78;;;18.10;32.34
13011;BME280;6786;57.632;11.962;2024-01-10T01:35:01;102868.47;;;17.95;32.25
13011;BME280;6786;57.632;11.962;2024-01-10T01:37:29;102896.25;;;18.10;32.29
13011;BME280;6786;57.632;11.962;2024-01-10T01:39:58;102890.00;;;18.11;32.23
13011;BME280;6786;57.632;11.962;2024-01-10T01:42:26;102892.66;;;18.11;32.33
13011;BME280;6786;57.632;11.962;2024-01-10T01:44:56;102881.31;;;18.06;32.37
13011;BME280;6786;57.632;11.962;2024-01-10T01:47:25;102900.69;;;18.11;32.34
13011;BME280;6786;57.632;11.962;2024-01-10T01:49:54;102898.94;;;18.10;32.22
13011;BME280;6786;57.632;11.962;2024-01-10T01:52:22;102902.56;;;18.09;32.45
13011;BME280;6786;57.632;11.962;2024-01-10T01:54:51;102907.91;;;18.09;32.29
13011;BME280;6786;57.632;11.962;2024-01-10T01:57:19;102905.25;;;18.09;32.39
13011;BME280;6786;57.632;11.962;2024-01-10T01:59:47;102897.22;;;18.09;32.21
13011;BME280;6786;57.632;11.962;2024-01-10T02:02:18;102898.09;;;18.09;32.28
13011;BME280;6786;57.632;11.962;2024-01-10T02:04:47;102899.88;;;18.09;32.18
13011;BME280;6786;57.632;11.962;2024-01-10T02:07:16;102898.94;;;18.10;32.25
13011;BME280;6786;57.632;11.962;2024-01-10T02:09:44;102893.59;;;18.10;32.22
13011;BME280;6786;57.632;11.962;2024-01-10T02:12:12;102898.94;;;18.10;32.25
13011;BME280;6786;57.632;11.962;2024-01-10T02:14:41;102893.72;;;18.07;32.29
13011;BME280;6786;57.632;11.962;2024-01-10T02:17:09;102906.03;;;18.11;32.29
13011;BME280;6786;57.632;11.962;2024-01-10T02:19:40;102904.28;;;18.10;32.28
13011;BME280;6786;57.632;11.962;2024-01-10T02:22:08;102906.03;;;18.11;32.29
13011;BME280;6786;57.632;11.962;2024-01-10T02:24:38;102895.50;;;18.08;32.37
13011;BME280;6786;57.632;11.962;2024-01-10T02:27:07;102895.50;;;18.08;32.23
13011;BME280;6786;57.632;11.962;2024-01-10T02:29:36;102898.94;;;18.10;32.26
13011;BME280;6786;57.632;11.962;2024-01-10T02:32:05;102890.91;;;18.10;32.31
13011;BME280;6786;57.632;11.962;2024-01-10T02:34:33;102881.16;;;18.09;32.22
13011;BME280;6786;57.632;11.962;2024-01-10T02:37:01;102878.47;;;18.09;32.30
13011;BME280;6786;57.632;11.962;2024-01-10T02:39:30;102880.13;;;18.11;32.30
13011;BME280;6786;57.632;11.962;2024-01-10T02:41:58;102880.19;;;18.10;32.35
13011;BME280;6786;57.632;11.962;2024-01-10T02:44:28;102879.28;;;18.11;32.29
13011;BME280;6786;57.632;11.962;2024-01-10T02:46:56;102879.28;;;18.11;32.22
13011;BME280;6786;57.632;11.962;2024-01-10T02:49:24;102887.31;;;18.11;32.22
13011;BME280;6786;57.632;11.962;2024-01-10T02:51:53;102883.75;;;18.10;32.22
13011;BME280;6786;57.632;11.962;2024-01-10T02:54:21;102887.31;;;18.11;32.17
13011;BME280;6786;57.632;11.962;2024-01-10T02:56:49;102879.28;;;18.11;32.35
13011;BME280;6786;57.632;11.962;2024-01-10T02:59:18;102881.09;;;18.10;32.36
13011;BME280;6786;57.632;11.962;2024-01-10T03:01:48;102874.84;;;18.10;32.25
13011;BME280;6786;57.632;11.962;2024-01-10T03:04:16;102870.44;;;18.09;32.37
13011;BME280;6786;57.632;11.962;2024-01-10T03:06:44;102873.94;;;18.11;32.22
13011;BME280;6786;57.632;11.962;2024-01-10T03:09:13;102873.94;;;18.11;32.21
13011;BME280;6786;57.632;11.962;2024-01-10T03:11:41;102876.59;;;18.11;32.22
13011;BME280;6786;57.632;11.962;2024-01-10T03:14:10;102883.69;;;18.12;32.15
13011;BME280;6786;57.632;11.962;2024-01-10T03:16:39;102859.03;;;18.05;32.21
13011;BME280;6786;57.632;11.962;2024-01-10T03:19:09;102864.94;;;18.12;32.22
13011;BME280;6786;57.632;11.962;2024-01-10T03:21:37;102864.06;;;18.11;32.16
13011;BME280;6786;57.632;11.962;2024-01-10T03:24:06;102863.22;;;18.11;32.18
13011;BME280;6786;57.632;11.962;2024-01-10T03:26:35;102865.91;;;18.11;32.19
13011;BME280;6786;57.632;11.962;2024-01-10T03:29:03;102863.22;;;18.11;32.21
13011;BME280;6786;57.632;11.962;2024-01-10T03:31:31;102863.22;;;18.11;32.40
13011;BME280;6786;57.632;11.962;2024-01-10T03:34:00;102856.13;;;18.10;32.34
13011;BME280;6786;57.632;11.962;2024-01-10T03:48:49;102870.38;;;19.11;31.55
13011;BME280;6786;57.632;11.962;2024-01-10T03:51:19;102872.78;;;19.00;31.65
13011;BME280;6786;57.632;11.962;2024-01-10T03:53:49;102867.03;;;18.90;31.80
13011;BME280;6786;57.632;11.962;2024-01-10T03:56:17;102862.25;;;18.80;31.73
13011;BME280;6786;57.632;11.962;2024-01-10T03:58:47;102859.91;;;18.74;31.77
13011;BME280;6786;57.632;11.962;2024-01-10T04:01:16;102850.56;;;18.65;31.75
13011;BME280;6786;57.632;11.962;2024-01-10T04:03:44;102850.00;;;18.59;31.78
13011;BME280;6786;57.632;11.962;2024-01-10T04:06:14;102855.69;;;18.53;31.68
13011;BME280;6786;57.632;11.962;2024-01-10T04:08:43;102834.97;;;18.39;31.83
13011;BME280;6786;57.632;11.962;2024-01-10T04:11:11;102846.47;;;18.41;31.83
13011;BME280;6786;57.632;11.962;2024-01-10T04:13:39;102854.75;;;18.37;31.72
13011;BME280;6786;57.632;11.962;2024-01-10T04:16:08;102858.50;;;18.33;31.70
13011;BME280;6786;57.632;11.962;2024-01-10T04:18:36;102853.31;;;18.30;31.75
13011;BME280;6786;57.632;11.962;2024-01-10T04:21:05;102866.78;;;18.28;31.75
13011;BME280;6786;57.632;11.962;2024-01-10T04:23:35;102858.03;;;18.25;31.80
13011;BME280;6786;57.632;11.962;2024-01-10T04:26:04;102846.50;;;18.23;31.85
13011;BME280;6786;57.632;11.962;2024-01-10T04:28:32;102853.63;;;18.24;31.78
13011;BME280;6786;57.632;11.962;2024-01-10T04:31:00;102850.94;;;18.24;31.69
13011;BME280;6786;57.632;11.962;2024-01-10T04:33:29;102842.91;;;18.24;31.72
13011;BME280;6786;57.632;11.962;2024-01-10T04:35:57;102841.16;;;18.23;31.78
13011;BME280;6786;57.632;11.962;2024-01-10T04:38:26;102836.00;;;18.20;31.91
13011;BME280;6786;57.632;11.962;2024-01-10T04:40:56;102837.88;;;18.18;31.83
13011;BME280;6786;57.632;11.962;2024-01-10T04:43:24;102845.91;;;18.18;31.91
13011;BME280;6786;57.632;11.962;2024-01-10T04:45:53;102838.75;;;18.18;31.90
13011;BME280;6786;57.632;11.962;2024-01-10T04:48:21;102833.41;;;18.18;31.79
13011;BME280;6786;57.632;11.962;2024-01-10T04:50:49;102840.56;;;18.18;31.85
13011;BME280;6786;57.632;11.962;2024-01-10T04:53:18;102836.16;;;18.17;31.89
13011;BME280;6786;57.632;11.962;2024-01-10T04:55:46;102849.53;;;18.17;31.93
13011;BME280;6786;57.632;11.962;2024-01-10T04:58:19;102847.69;;;18.17;31.95
13011;BME280;6786;57.632;11.962;2024-01-10T05:00:47;102853.06;;;18.17;31.86
13011;BME280;6786;57.632;11.962;2024-01-10T05:03:16;102852.22;;;18.17;31.94
13011;BME280;6786;57.632;11.962;2024-01-10T05:05:44;102839.75;;;18.16;31.93
13011;BME280;6786;57.632;11.962;2024-01-10T05:08:13;102837.72;;;18.21;32.03
13011;BME280;6786;57.632;11.962;2024-01-10T05:10:41;102832.72;;;18.30;31.92
13011;BME280;6786;57.632;11.962;2024-01-10T05:13:09;102840.41;;;18.38;32.01
13011;BME280;6786;57.632;11.962;2024-01-10T05:15:39;102834.72;;;18.44;31.98
13011;BME280;6786;57.632;11.962;2024-01-10T05:18:07;102839.94;;;18.47;31.93
13011;BME280;6786;57.632;11.962;2024-01-10T05:20:37;102825.63;;;18.48;31.96
13011;BME280;6786;57.632;11.962;2024-01-10T05:23:06;102824.66;;;18.49;31.90
13011;BME280;6786;57.632;11.962;2024-01-10T05:25:34;102806.94;;;18.46;31.96
13011;BME280;6786;57.632;11.962;2024-01-10T05:28:03;102808.59;;;18.49;31.95
13011;BME280;6786;57.632;11.962;2024-01-10T05:30:32;102812.22;;;18.48;31.92
13011;BME280;6786;57.632;11.962;2024-01-10T05:33:01;102809.56;;;18.48;31.99
13011;BME280;6786;57.632;11.962;2024-01-10T05:35:30;102805.91;;;18.49;31.91
13011;BME280;6786;57.632;11.962;2024-01-10T05:37:58;102801.44;;;18.49;31.82
13011;BME280;6786;57.632;11.962;2024-01-10T05:40:26;102804.94;;;18.50;31.77
13011;BME280;6786;57.632;11.962;2024-01-10T05:42:56;102789.84;;;18.49;31.84
13011;BME280;6786;57.632;11.962;2024-01-10T05:45:25;102791.56;;;18.50;31.88
13011;BME280;6786;57.632;11.962;2024-01-10T05:47:53;102796.06;;;18.49;31.87
13011;BME280;6786;57.632;11.962;2024-01-10T05:50:24;102804.03;;;18.51;31.80
13011;BME280;6786;57.632;11.962;2024-01-10T05:52:52;102793.31;;;18.51;31.90
13011;BME280;6786;57.632;11.962;2024-01-10T05:55:20;102801.94;;;18.56;31.87
13011;BME280;6786;57.632;11.962;2024-01-10T05:57:51;102797.47;;;18.56;31.89
13011;BME280;6786;57.632;11.962;2024-01-10T06:00:19;102795.75;;;18.55;31.95
13011;BME280;6786;57.632;11.962;2024-01-10T06:02:49;102792.19;;;18.55;31.88
13011;BME280;6786;57.632;11.962;2024-01-10T06:05:18;102789.34;;;18.58;31.88
13011;BME280;6786;57.632;11.962;2024-01-10T06:07:48;102784.00;;;18.58;31.83
13011;BME280;6786;57.632;11.962;2024-01-10T06:10:16;102795.66;;;18.57;31.81
13011;BME280;6786;57.632;11.962;2024-01-10T06:12:45;102787.63;;;18.57;31.91
13011;BME280;6786;57.632;11.962;2024-01-10T06:15:13;102769.81;;;18.56;31.88
13011;BME280;6786;57.632;11.962;2024-01-10T06:17:41;102774.41;;;18.54;31.87
13011;BME280;6786;57.632;11.962;2024-01-10T06:20:10;102777.94;;;18.54;32.08
13011;BME280;6786;57.632;11.962;2024-01-10T06:22:39;102768.97;;;18.55;31.94
13011;BME280;6786;57.632;11.962;2024-01-10T06:25:10;102766.38;;;18.54;31.89
13011;BME280;6786;57.632;11.962;2024-01-10T06:27:38;102760.31;;;18.50;31.87
13011;BME280;6786;57.632;11.962;2024-01-10T06:30:08;102755.81;;;18.51;31.86
13011;BME280;6786;57.632;11.962;2024-01-10T06:32:36;102756.75;;;18.50;31.90
13011;BME280;6786;57.632;11.962;2024-01-10T06:35:05;102752.19;;;18.52;31.83
13011;BME280;6786;57.632;11.962;2024-01-10T06:37:36;102759.44;;;18.50;31.92
13011;BME280;6786;57.632;11.962;2024-01-10T06:40:06;102758.91;;;18.43;32.19
13011;BME280;6786;57.632;11.962;2024-01-10T06:42:37;102759.91;;;18.41;32.44
13011;BME280;6786;57.632;11.962;2024-01-10T06:45:07;102772.38;;;18.42;32.35
13011;BME280;6786;57.632;11.962;2024-01-10T06:47:35;102767.88;;;18.42;32.51
13011;BME280;6786;57.632;11.962;2024-01-10T06:50:05;102773.22;;;18.42;32.61
13011;BME280;6786;57.632;11.962;2024-01-10T06:52:35;102768.91;;;18.40;32.74
13011;BME280;6786;57.632;11.962;2024-01-10T06:55:05;102761.84;;;18.39;32.66
13011;BME280;6786;57.632;11.962;2024-01-10T06:57:33;102761.84;;;18.39;32.68
13011;BME280;6786;57.632;11.962;2024-01-10T07:00:04;102771.66;;;18.38;32.82
13011;BME280;6786;57.632;11.962;2024-01-10T07:02:38;102784.09;;;18.39;32.75
13011;BME280;6786;57.632;11.962;2024-01-10T07:05:08;102782.47;;;18.37;32.84
13011;BME280;6786;57.632;11.962;2024-01-10T07:07:36;102780.56;;;18.39;32.80
13011;BME280;6786;57.632;11.962;2024-01-10T07:10:05;102783.25;;;18.39;32.91
13011;BME280;6786;57.632;11.962;2024-01-10T07:12:34;102767.19;;;18.39;32.92
13011;BME280;6786;57.632;11.962;2024-01-10T07:15:05;102772.53;;;18.39;32.93
13011;BME280;6786;57.632;11.962;2024-01-10T07:17:33;102764.81;;;18.33;32.93
13011;BME280;6786;57.632;11.962;2024-01-10T07:20:02;102771.75;;;18.37;32.89
13011;BME280;6786;57.632;11.962;2024-01-10T07:22:32;102767.19;;;18.39;32.94
13011;BME280;6786;57.632;11.962;2024-01-10T07:25:02;102772.53;;;18.39;32.99
13011;BME280;6786;57.632;11.962;2024-01-10T07:27:32;102743.06;;;18.22;32.79
13011;BME280;6786;57.632;11.962;2024-01-10T07:30:01;102758.38;;;18.37;32.96
13011;BME280;6786;57.632;11.962;2024-01-10T07:32:30;102752.09;;;18.36;33.04
13011;BME280;6786;57.632;11.962;2024-01-10T07:34:59;102753.72;;;18.40;33.13
13011;BME280;6786;57.632;11.962;2024-01-10T07:37:27;102754.72;;;18.38;33.09
13011;BME280;6786;57.632;11.962;2024-01-10T07:39:55;102758.19;;;18.40;33.15
13011;BME280;6786;57.632;11.962;2024-01-10T07:42:24;102770.63;;;18.41;33.04
13011;BME280;6786;57.632;11.962;2024-01-10T07:44:52;102756.31;;;18.42;33.05
13011;BME280;6786;57.632;11.962;2024-01-10T07:47:21;102763.56;;;18.40;33.20
13011;BME280;6786;57.632;11.962;2024-01-10T07:49:51;102767.03;;;18.42;33.04
13011;BME280;6786;57.632;11.962;2024-01-10T07:52:20;102756.31;;;18.42;32.95
13011;BME280;6786;57.632;11.962;2024-01-10T07:54:51;102743.78;;;18.42;33.20
13011;BME280;6786;57.632;11.962;2024-01-10T07:57:19;102745.59;;;18.42;33.18
13011;BME280;6786;57.632;11.962;2024-01-10T07:59:48;102749.03;;;18.44;33.20
13011;BME280;6786;57.632;11.962;2024-01-10T08:02:16;102756.31;;;18.42;33.26
13011;BME280;6786;57.632;11.962;2024-01-10T08:04:44;102756.31;;;18.42;33.17
13011;BME280;6786;57.632;11.962;2024-01-10T08:07:14;102751.88;;;18.41;33.17
13011;BME280;6786;57.632;11.962;2024-01-10T08:09:43;102752.84;;;18.40;33.37
13011;BME280;6786;57.632;11.962;2024-01-10T08:12:11;102747.31;;;18.43;33.16
13011;BME280;6786;57.632;11.962;2024-01-10T08:14:42;102747.31;;;18.43;33.26
13011;BME280;6786;57.632;11.962;2024-01-10T08:17:12;102743.84;;;18.41;33.24
13011;BME280;6786;57.632;11.962;2024-01-10T08:19:42;102741.97;;;18.43;33.22
13011;BME280;6786;57.632;11.962;2024-01-10T08:22:10;102760.72;;;18.43;33.21
13011;BME280;6786;57.632;11.962;2024-01-10T08:24:40;102758.03;;;18.43;33.28
13011;BME280;6786;57.632;11.962;2024-01-10T08:27:09;102758.03;;;18.43;33.20
13011;BME280;6786;57.632;11.962;2024-01-10T08:29:37;102755.53;;;18.40;33.05
13011;BME280;6786;57.632;11.962;2024-01-10T08:32:06;102759.16;;;18.39;33.14
13011;BME280;6786;57.632;11.962;2024-01-10T08:34:34;102754.56;;;18.41;33.15
13011;BME280;6786;57.632;11.962;2024-01-10T08:37:03;102760.78;;;18.41;33.14
13011;BME280;6786;57.632;11.962;2024-01-10T08:39:31;102767.03;;;18.42;33.10
13011;BME280;6786;57.632;11.962;2024-01-10T08:42:01;102767.03;;;18.42;33.34
13011;BME280;6786;57.632;11.962;2024-01-10T08:44:30;102764.34;;;18.42;33.41
13011;BME280;6786;57.632;11.962;2024-01-10T08:46:58;102758.03;;;18.43;33.44
13011;BME280;6786;57.632;11.962;2024-01-10T08:49:26;102747.31;;;18.43;33.36
13011;BME280;6786;57.632;11.962;2024-01-10T08:51:55;102738.34;;;18.44;33.51
13011;BME280;6786;57.632;11.962;2024-01-10T08:54:23;102752.50;;;18.46;33.48
13011;BME280;6786;57.632;11.962;2024-01-10T08:56:52;102757.88;;;18.46;33.45
13011;BME280;6786;57.632;11.962;2024-01-10T08:59:21;102758.84;;;18.45;33.59
13011;BME280;6786;57.632;11.962;2024-01-10T09:01:50;102768.59;;;18.46;33.46
13011;BME280;6786;57.632;11.962;2024-01-10T09:04:19;102756.16;;;18.45;33.53
13011;BME280;6786;57.632;11.962;2024-01-10T09:06:47;102747.16;;;18.46;33.38
13011;BME280;6786;57.632;11.962;2024-01-10T09:09:15;102747.16;;;18.46;33.57
13011;BME280;6786;57.632;11.962;2024-01-10T09:11:47;102752.50;;;18.46;33.48
13011;BME280;6786;57.632;11.962;2024-01-10T09:14:16;102746.38;;;18.44;33.51
13011;BME280;6786;57.632;11.962;2024-01-10T09:16:46;102751.72;;;18.44;33.53
13011;BME280;6786;57.632;11.962;2024-01-10T09:19:14;102750.97;;;18.42;33.55
13011;BME280;6786;57.632;11.962;2024-01-10T09:21:43;102761.50;;;18.45;33.60
13011;BME280;6786;57.632;11.962;2024-01-10T09:24:12;102750.81;;;18.45;33.48
13011;BME280;6786;57.632;11.962;2024-01-10T09:26:54;102742.75;;;18.45;33.58
13011;BME280;6786;57.632;11.962;2024-01-10T09:29:23;102747.16;;;18.46;33.65
13011;BME280;6786;57.632;11.962;2024-01-10T09:31:54;102736.44;;;18.46;33.52
13011;BME280;6786;57.632;11.962;2024-01-10T09:34:23;102733.78;;;18.46;33.44
13011;BME280;6786;57.632;11.962;2024-01-10T09:36:52;102748.88;;;18.47;33.70
13011;BME280;6786;57.632;11.962;2024-01-10T09:39:20;102747.16;;;18.46;33.62
13011;BME280;6786;57.632;11.962;2024-01-10T09:41:49;102748.03;;;18.46;33.54
13011;BME280;6786;57.632;11.962;2024-01-10T09:44:20;102755.13;;;18.47;33.65
13011;BME280;6786;57.632;11.962;2024-01-10T09:46:51;102738.34;;;18.44;33.56
13011;BME280;6786;57.632;11.962;2024-01-10T09:49:22;102747.16;;;18.46;33.62
13011;BME280;6786;57.632;11.962;2024-01-10T09:51:54;102747.16;;;18.46;33.58
13011;BME280;6786;57.632;11.962;2024-01-10T09:54:26;102747.16;;;18.46;33.64
13011;BME280;6786;57.632;11.962;2024-01-10T09:56:57;102730.22;;;18.45;33.59
13011;BME280;6786;57.632;11.962;2024-01-10T09:59:26;102734.72;;;18.45;33.60
13011;BME280;6786;57.632;11.962;2024-01-10T10:01:56;102740.09;;;18.45;33.47
13011;BME280;6786;57.632;11.962;2024-01-10T10:04:27;102751.72;;;18.44;33.56
13011;BME280;6786;57.632;11.962;2024-01-10T10:06:59;102750.81;;;18.45;33.56
13011;BME280;6786;57.632;11.962;2024-01-10T10:09:29;102750.81;;;18.45;33.34
13011;BME280;6786;57.632;11.962;2024-01-10T10:11:58;102748.03;;;18.46;33.48
13011;BME280;6786;57.632;11.962;2024-01-10T10:14:28;102747.97;;;18.48;33.39
13011;BME280;6786;57.632;11.962;2024-01-10T10:17:13;102744.41;;;18.47;33.81
13011;BME280;6786;57.632;11.962;2024-01-10T10:19:45;102749.69;;;18.49;33.43
13011;BME280;6786;57.632;11.962;2024-01-10T10:22:14;102747.00;;;18.49;33.52
13011;BME280;6786;57.632;11.962;2024-01-10T10:24:48;102752.34;;;18.49;33.67
13011;BME280;6786;57.632;11.962;2024-01-10T10:27:16;102745.28;;;18.48;33.64
13011;BME280;6786;57.632;11.962;2024-01-10T10:29:45;102748.88;;;18.47;33.63
13011;BME280;6786;57.632;11.962;2024-01-10T10:32:15;102747.00;;;18.49;33.66
13011;BME280;6786;57.632;11.962;2024-01-10T10:34:47;102724.47;;;18.36;33.80
13011;BME280;6786;57.632;11.962;2024-01-10T10:37:15;102747.00;;;18.49;33.68
13011;BME280;6786;57.632;11.962;2024-01-10T10:39:43;102751.47;;;18.48;33.93
13011;BME280;6786;57.632;11.962;2024-01-10T10:42:12;102741.97;;;18.43;34.06
13011;BME280;6786;57.632;11.962;2024-01-10T10:44:43;102719.13;;;18.36;34.16
13011;BME280;6786;57.632;11.962;2024-01-10T10:47:14;102733.78;;;18.46;34.10
13011;BME280;6786;57.632;11.962;2024-01-10T10:49:50;102733.16;;;18.41;34.04
13011;BME280;6786;57.632;11.962;2024-01-10T10:52:21;102727.78;;;18.41;34.00
13011;BME280;6786;57.632;11.962;2024-01-10T10:54:51;102729.72;;;18.39;33.86
13011;BME280;6786;57.632;11.962;2024-01-10T10:57:22;102729.78;;;18.37;33.81
13011;BME280;6786;57.632;11.962;2024-01-10T10:59:53;102735.19;;;18.36;33.78
13011;BME280;6786;57.632;11.962;2024-01-10T11:02:23;102743.22;;;18.36;33.84
13011;BME280;6786;57.632;11.962;2024-01-10T11:04:59;102704.38;;;18.12;33.87
13011;BME280;6786;57.632;11.962;2024-01-10T11:07:30;102736.28;;;18.32;33.74
13011;BME280;6786;57.632;11.962;2024-01-10T11:09:59;102720.22;;;18.32;33.60
13011;BME280;6786;57.632;11.962;2024-01-10T11:12:55;102715.81;;;18.31;34.09
13011;BME280;6786;57.632;11.962;2024-01-10T11:15:56;102711.50;;;18.28;33.97
13011;BME280;6786;57.632;11.962;2024-01-10T11:18:42;102716.84;;;18.28;33.80
13011;BME280;6786;57.632;11.962;2024-01-10T11:21:19;102705.28;;;18.28;33.63
13011;BME280;6786;57.632;11.962;2024-01-10T11:23:54;102712.50;;;18.26;33.61
13011;BME280;6786;57.632;11.962;2024-01-10T11:26:24;102721.34;;;18.28;33.80
13011;BME280;6786;57.632;11.962;2024-01-10T11:28:54;102677.59;;;18.12;33.49
13011;BME280;6786;57.632;11.962;2024-01-10T11:31:28;102702.69;;;18.26;33.72
13011;BME280;6786;57.632;11.962;2024-01-10T11:33:57;102707.16;;;18.26;33.58
13011;BME280;6786;57.632;11.962;2024-01-10T11:36:28;102698.38;;;18.24;33.51
13011;BME280;6786;57.632;11.962;2024-01-10T11:38:58;102689.38;;;18.25;33.44
13011;BME280;6786;57.632;11.962;2024-01-10T11:41:31;102689.38;;;18.25;33.25
13011;BME280;6786;57.632;11.962;2024-01-10T11:47:04;102691.97;;;18.26;33.38
13011;BME280;6786;57.632;11.962;2024-01-10T11:49:32;102699.47;;;18.37;33.44
13011;BME280;6786;57.632;11.962;2024-01-10T11:52:03;102684.78;;;18.44;33.51
13011;BME280;6786;57.632;11.962;2024-01-10T11:54:38;102689.81;;;18.50;33.64
13011;BME280;6786;57.632;11.962;2024-01-10T11:57:08;102694.66;;;18.59;33.40
13011;BME280;6786;57.632;11.962;2024-01-10T11:59:38;102697.16;;;18.62;33.38
13011;BME280;6786;57.632;11.962;2024-01-10T12:02:06;102694.31;;;18.65;33.46
13011;BME280;6786;57.632;11.962;2024-01-10T12:04:35;102699.50;;;18.68;33.40
13011;BME280;6786;57.632;11.962;2024-01-10T12:07:15;102702.97;;;18.70;33.36
13011;BME280;6786;57.632;11.962;2024-01-10T12:09:46;102686.75;;;18.73;33.51
13011;BME280;6786;57.632;11.962;2024-01-10T12:12:14;102686.75;;;18.73;33.43
13011;BME280;6786;57.632;11.962;2024-01-10T12:14:44;102690.16;;;18.75;33.29
13011;BME280;6786;57.632;11.962;2024-01-10T12:17:13;102693.66;;;18.77;33.53
13011;BME280;6786;57.632;11.962;2024-01-10T12:19:42;102690.00;;;18.78;33.40
13011;BME280;6786;57.632;11.962;2024-01-10T12:22:16;102683.81;;;18.77;33.49
13011;BME280;6786;57.632;11.962;2024-01-10T12:24:45;102685.44;;;18.80;33.37
13011;BME280;6786;57.632;11.962;2024-01-10T12:27:17;102683.63;;;18.80;33.38
13011;BME280;6786;57.632;11.962;2024-01-10T12:29:50;102687.16;;;18.81;33.38
13011;BME280;6786;57.632;11.962;2024-01-10T12:32:20;102675.50;;;18.82;33.41
13011;BME280;6786;57.632;11.962;2024-01-10T12:34:57;102679.91;;;18.83;33.50
13011;BME280;6786;57.632;11.962;2024-01-10T12:37:28;102674.53;;;18.83;33.49
13011;BME280;6786;57.632;11.962;2024-01-10T12:39:57;102669.97;;;18.85;33.45
13011;BME280;6786;57.632;11.962;2024-01-10T12:42:25;102660.09;;;18.85;33.46
13011;BME280;6786;57.632;11.962;2024-01-10T12:44:53;102643.34;;;18.82;33.54
13011;BME280;6786;57.632;11.962;2024-01-10T12:47:23;102656.41;;;18.88;33.35
13011;BME280;6786;57.632;11.962;2024-01-10T12:49:53;102632.63;;;18.82;33.56
13011;BME280;6786;57.632;11.962;2024-01-10T12:52:22;102647.50;;;18.87;33.38
13011;BME280;6786;57.632;11.962;2024-01-10T12:54:53;102641.25;;;18.87;33.37
13011;BME280;6786;57.632;11.962;2024-01-10T12:57:21;102643.00;;;18.88;33.45
13011;BME280;6786;57.632;11.962;2024-01-10T12:59:50;102637.66;;;18.88;33.35
13011;BME280;6786;57.632;11.962;2024-01-10T13:02:19;102635.72;;;18.90;33.47
13011;BME280;6786;57.632;11.962;2024-01-10T13:04:47;102628.66;;;18.89;33.37
13011;BME280;6786;57.632;11.962;2024-01-10T13:07:16;102623.28;;;18.89;33.54
13011;BME280;6786;57.632;11.962;2024-01-10T13:09:45;102619.66;;;18.90;33.42
13011;BME280;6786;57.632;11.962;2024-01-10T13:12:15;102613.44;;;18.89;33.38
13011;BME280;6786;57.632;11.962;2024-01-10T13:14:43;102616.03;;;18.91;33.33
13011;BME280;6786;57.632;11.962;2024-01-10T13:17:11;102625.00;;;18.90;33.38